Detalii statie AGRICHIM STEFAN CEL MARE [0000198F]

Toti senzorii

Date Temperatura solului [C]Precipitatii [mm]Voltaj baterie [mV]HC Air temperature [C]HC Relative humidity [%]Punctul de roua [C]
medieminmaxsumaultimamedieminmaxmediemediemin
2017-06-25 06:00:00 20.9 20.8 21.3 0 6864 18.08 17.07 19.22 100 18 17
2017-06-25 07:00:00 20.8 20.6 20.9 0 6932 20.52 19.48 21.26 100 20.4 19.4
2017-06-25 08:00:00 20.7 20.6 20.9 0 6962 23.05 21.71 24.23 100 23 21.7
2017-06-25 09:00:00 20.7 20.6 20.9 0 7158 25.41 24.4 26.91 100 25.3 24.4
2017-06-25 10:00:00 20.7 20.6 20.9 0 7246 28.41 26.98 29.54 100 28.3 26.9
2017-06-25 11:00:00 20.8 20.8 21 0 7254 32.03 29.84 33.23 99.97 31.9 29.8
2017-06-25 12:00:00 21.2 20.9 21.5 0 7254 33.24 32.4 33.77 99.51 33 32.4
2017-06-25 13:00:00 21.9 21.7 22.3 0 7254 33.7 32.21 34.37 98.77 33.3 32.2
2017-06-25 14:00:00 22.6 22.3 22.9 0 7254 34.31 33.08 35.17 96.72 33.5 32.3
2017-06-25 15:00:00 23.1 22.8 23.4 0 7264 34.01 32.36 35.67 100 33.9 32.3
2017-06-25 16:00:00 23.6 23.4 23.8 0 7254 33.3 31.89 34.58 100 33.2 31.8
2017-06-25 17:00:00 23.8 23.7 24 0 7196 31.36 29.99 32.99 100 31.3 29.9
2017-06-25 18:00:00 23.9 23.8 24.1 0 7246 29.8 29.22 30.31 100 29.7 29.2
2017-06-25 19:00:00 23.9 23.8 24.1 0 7060 28.17 27.31 29.03 100 28.1 27.3
2017-06-25 20:00:00 23.7 23.6 24 0 6952 26.57 25.52 27.29 100 26.5 25.5
2017-06-25 21:00:00 23.5 23.3 23.8 0 6932 24.19 23.19 25.3 100 24.1 23.1
2017-06-25 22:00:00 23.3 23.1 23.5 0 6914 22.36 21.47 23.07 100 22.3 21.4
2017-06-25 23:00:00 23.1 22.9 23.3 0 6904 20.82 20.34 21.29 100 20.7 20.3
2017-06-26 00:00:00 22.8 22.7 23 0 6884 19.96 19.57 20.22 100 19.9 19.5
2017-06-26 01:00:00 22.5 22.3 22.8 0 6864 19.36 18.96 19.68 100 19.3 18.9
2017-06-26 02:00:00 22.2 22 22.5 0 6864 18.89 18.5 19.18 100 18.8 18.5
2017-06-26 03:00:00 22.1 21.9 22.3 0 6864 18.08 17.86 18.32 100 18 17.8
2017-06-26 04:00:00 21.8 21.7 22 0 6864 17.66 17.49 17.89 100 17.6 17.4
2017-06-26 05:00:00 21.6 21.6 21.8 0 6864 17.48 17.41 17.61 100 17.4 17.4
2017-06-26 06:00:00 21.4 21.2 21.6 0 6884 18.62 17.7 19.59 100 18.5 17.7
2017-06-26 07:00:00 21.2 21.2 21.4 0 6942 21.04 19.85 22.25 100 20.9 19.8
2017-06-26 08:00:00 21.1 21 21.2 0 6972 23.9 22.67 25.31 100 23.8 22.6
2017-06-26 09:00:00 21 21 21.2 0 7148 26.92 25.42 28.62 100 26.8 25.4
2017-06-26 10:00:00 21 21 21.1 0 7254 29.26 28.16 30 99.98 29.2 27.9
2017-06-26 11:00:00 21.1 21 21.2 0 7264 31.76 30.14 32.71 99.58 31.5 30.1
2017-06-26 12:00:00 21.5 21.3 21.9 0 7254 33.13 32.38 33.63 99.37 32.9 32
2017-06-26 13:00:00 22.3 22 22.6 0 7254 34.02 33.8 34.36 96.58 33.2 33
2017-06-26 14:00:00 23.1 22.7 23.7 0 7254 34.41 32.57 34.92 94.76 33.2 32.1
2017-06-26 15:00:00 23.7 23.5 24.2 0 7264 33.58 32.48 34.33 97.34 32.9 32
2017-06-26 16:00:00 24.1 24 24.3 0 7196 32.8 31.63 33.99 97.22 32.1 31.2
2017-06-26 17:00:00 24.3 24.3 24.5 0 7166 31.94 31.28 32.89 97.73 31.4 30.8
2017-06-26 18:00:00 24.3 24.2 24.5 0 7088 30.21 29.28 31.05 99.32 29.9 29.2
2017-06-26 19:00:00 24.2 24 24.4 0 7040 28.27 27.37 29.16 100 28.2 27.3